Weather observations for the past three days for
Plainview, Hale County Airport
Metric (Imperial)
Date Time (cdt) Wind (kph) Vis. (km) Weather Sky Cond. Temperature (ºC) Relative Humidity Wind Chill (°C) Heat Index (°C) Pressure Precipitation (cm)
Air Dwpt 6 hour altimeter (cm) sea level (mb) 1 hr 3 hr 6 hr
Max. Min.
06 09:10 E 17 G 28 16.09 Partly Cloudy SCT022 8.3 0.8 60% 6 76.25 0.0
06 08:50 E 20 16.09 Fair CLR 7.3 0.6 63% 4 76.23 0.0
06 08:30 E 15 16.09 Partly Cloudy SCT016 6.8 0.8 66% 4 76.2 0.0
06 07:50 NE 19 16.09 Overcast OVC014 5.8 2 77% 3 76.2 0.0
06 07:30 E 19 16.09 Overcast OVC012 5.7 2.2 78% 2 76.2 0.0
06 07:10 E 20 16.09 Overcast OVC010 5.5 2.6 82% 2 76.2 0.0
06 06:50 E 20 16.09 Overcast OVC010 5.8 3.1 8.3 5.5 83% 2 76.2 0.0
06 06:30 E 20 16.09 Overcast OVC012 6.2 3.2 81% 3 76.17 0.0
06 06:10 NE 17 G 31 16.09 Overcast OVC012 6.5 3.1 79% 4 76.17 0.0
06 05:50 NE 24 16.09 Overcast OVC012 6.5 3.1 79% 3 76.12 0.0
06 05:30 E 26 16.09 Overcast OVC012 6.5 3 79% 3 76.1 0.0
06 05:10 E 20 16.09 Overcast OVC012 6.3 3 80% 3 76.1 0.0
06 04:30 E 19 G 28 16.09 Mostly Cloudy BKN014 5.7 2.6 81% 2 76.05 0.0
06 04:10 E 20 16.09 Partly Cloudy SCT014 5.5 2.5 81% 2 76 0.0
06 03:50 E 17 16.09 Mostly Cloudy BKN014 5.7 2.5 80% 3 76 0.0
06 03:30 E 20 16.09 Fair CLR 5.6 2.3 80% 2 76 0.0
06 03:10 NE 20 G 28 16.09 Fair CLR 6 2.2 77% 3 76 0.0
06 02:50 E 24 16.09 Fair CLR 6.4 2.3 75% 3 76 0.0
06 02:30 E 20 16.09 Fair CLR 6.7 2.7 76% 3 75.97 0.0
06 02:10 E 24 16.09 Fair CLR 7.2 2.9 74% 4 76 0.0
06 01:50 E 26 16.09 Fair CLR 7.6 3 73% 4 75.97 0.0
06 01:30 E 17 16.09 Fair CLR 7.8 3 72% 5 75.95 0.0
06 01:10 E 22 16.09 Fair CLR 8 3 71% 5 75.9 0.0
06 00:50 E 22 16.09 Fair CLR 8.4 3.1 21 8.4 70% 5 75.87 0.0
06 00:30 E 20 16.09 Fair CLR 8.8 3.2 68% 6 75.84 0.0
06 00:10 E 26 16.09 Fair CLR 9.2 3.3 67% 6 75.9 0.0
05 23:50 E 26 16.09 Fair CLR 9.6 3.4 66% 7 75.87 0.0
05 23:30 E 28 16.09 Fair CLR 10.2 3.7 64% 75.84 0.0
05 23:10 E 30 G 37 16.09 Fair CLR 10.8 4.1 64% 75.87 0.0
05 22:50 E 26 16.09 Fair CLR 11.5 4.3 62% 75.9 0.0
05 22:30 NE 26 16.09 Fair CLR 12.1 4.5 60% 75.9 0.0
05 22:10 E 30 G 35 16.09 Fair CLR 12.9 4.5 57% 75.87 0.0
05 21:50 E 22 16.09 Fair CLR 13.7 4.5 54% 75.84 0.0
05 21:30 E 24 G 37 16.09 Fair CLR 14.5 4.5 51% 75.79 0.0
05 20:50 E 24 G 33 16.09 Mostly Cloudy BKN100 15.8 4.5 47% 75.72 0.0
05 20:30 E 31 G 39 16.09 Mostly Cloudy BKN110 16.5 4.6 45% 75.67 0.0
05 20:10 E 31 16.09 Light Rain SCT110 17 5.1 46% 75.62 0.0
05 19:50 SE 24 G 31 16.09 Partly Cloudy SCT110 18.5 4.1 39% 75.62 0.0
05 19:30 E 28 G 33 16.09 Fair CLR 19.1 4 37% 75.59 0.0
05 19:10 E 24 16.09 Partly Cloudy SCT090 SCT110 20 3.5 34% 75.57 0.0
05 18:50 E 20 16.09 Overcast SCT075 OVC090 21.4 3.4 23.2 20 31% 75.62 0.0
05 18:30 E 20 16.09 Overcast SCT075 OVC090 20.9 3.4 32% 75.62 0.0
05 18:10 E 9 16.09 Mostly Cloudy BKN100 21.5 2.8 29% 75.64 0.0
05 17:50 E 13 16.09 Partly Cloudy SCT110 21.6 2.9 29% 75.62 0.0
05 17:30 E 6 G 26 16.09 Fair CLR 22.7 2.4 26% 75.59 0.0
05 17:10 E 19 16.09 Fair CLR 23 2.8 27% 75.62 0.0
05 16:50 E 17 G 28 16.09 Fair CLR 22.6 2.9 28% 75.64 0.0
05 16:30 N 11 16.09 Fair CLR 23 2.3 26% 75.67 0.0
05 16:10 NE 13 16.09 Fair CLR 22.1 2.3 27% 75.69 0.0
05 15:50 E 11 16.09 Fair CLR 22.1 2.1 27% 75.72 0.0
05 15:30 Calm 16.09 Fair CLR 21.5 2 28% 75.74 0.0
05 15:10 N 11 G 28 16.09 Fair CLR 22 2.2 27% 75.74 0.0
05 14:50 N 17 16.09 Fair CLR 21 1.9 28% 75.74 0.0
05 14:30 NE 9 16.09 Fair CLR 20.9 1.6 28% 75.77 0.0
05 14:10 N 15 G 26 16.09 Fair CLR 21.1 1.9 28% 75.77 0.0
05 13:50 N 17 G 28 16.09 Fair CLR 21.3 1.7 27% 75.74 0.0
05 13:30 N 9 16.09 Fair CLR 20.9 1.2 27% 75.77 0.0
05 13:10 N 20 G 30 16.09 Fair CLR 20.2 1.6 29% 75.77 0.0
05 12:50 N 17 G 37 16.09 Fair CLR 20.9 1.6 20.9 14.3 28% 75.77 0.0
05 12:30 N 20 G 31 16.09 Fair CLR 19.5 1.3 30% 75.79 0.0
05 12:10 N 24 G 31 16.09 Fair CLR 19.8 1.5 30% 75.74 0.0
05 11:50 N 20 G 31 16.09 Fair CLR 18.4 1.6 33% 75.77 0.0
05 11:30 N 24 G 35 16.09 Fair CLR 17.6 1.5 34% 75.77 0.0
05 11:10 N 24 16.09 Fair CLR 16.8 1.5 36% 75.79 0.0
05 10:50 N 28 16.09 Fair CLR 17.6 1.7 35% 75.79 0.0
05 10:30 N 24 G 31 16.09 Fair CLR 16.5 1.7 37% 75.77 0.0
05 10:10 N 19 G 30 16.09 Partly Cloudy SCT110 16.4 2.3 39% 75.79 0.0
05 09:50 N 24 G 30 16.09 Fair CLR 16 2.7 41% 75.72 0.0
05 09:30 N 28 16.09 Fair CLR 15.9 3 42% 75.69 0.0
05 09:10 N 28 16.09 Fair CLR 15.6 3.4 44% 75.69 0.0
05 08:50 N 24 16.09 Fair CLR 15.1 3.8 47% 75.67 0.0
05 08:30 N 20 G 30 16.09 Fair CLR 14.8 4 49% 75.67 0.0
05 08:10 N 24 G 30 16.09 Fair CLR 14.8 4.1 49% 75.64 0.0
05 07:50 N 30 G 37 16.09 Fair CLR 14.7 4 49% 75.64 0.0
05 07:10 N 20 16.09 Fair CLR 17 -1 30% 75.54 0.0
05 06:50 NW 20 16.09 Fair CLR 18 -1.5 20.5 18 27% 75.54 0.0
05 06:30 NW 22 16.09 Fair CLR 19.3 -1.9 24% 75.49 0.0
05 05:50 W 26 16.09 Fair CLR 19.2 -1.8 24% 75.44 0.0
05 05:30 W 26 G 35 16.09 Fair CLR 20 -2.1 23% 75.46 0.0
05 05:10 W 30 G 39 16.09 Fair CLR 20.5 -2.1 22% 75.44 0.0
05 04:50 W 26 16.09 Fair CLR 19.7 -1.8 23% 75.41 0.0
05 04:30 W 28 16.09 Fair CLR 19.6 -1.5 24% 75.41 0.0
05 04:10 W 22 16.09 Fair CLR 19.9 -1.3 24% 75.41 0.0
05 03:50 W 20 16.09 Fair CLR 19.6 -1 25% 75.41 0.0
05 03:30 W 26 16.09 Fair CLR 19.6 -1 25% 75.39 0.0
05 03:10 W 22 16.09 Fair CLR 18.7 -0.6 27% 75.41 0.0
05 02:50 W 19 16.09 Fair CLR 18.7 -0.5 28% 75.41 0.0
05 02:30 SW 20 16.09 Fair CLR 18.8 -0.5 27% 75.44 0.0
05 02:10 SW 20 16.09 Fair CLR 18.9 -0.5 27% 75.44 0.0
05 01:50 SW 20 16.09 Fair CLR 19.1 -0.5 27% 75.44 0.0
05 01:30 SW 20 16.09 Fair CLR 19.7 -0.6 26% 75.46 0.0
05 01:10 SW 17 16.09 Fair CLR 20 -0.5 25% 75.46 0.0
05 00:50 SW 15 16.09 Fair CLR 20.7 -0.5 27.5 20.5 24% 75.46 0.0
05 00:30 SW 17 16.09 Fair CLR 21.1 -0.7 23% 75.46 0.0
05 00:10 SW 13 16.09 Fair CLR 20.6 -0.5 24% 75.49 0.0
04 23:50 SW 13 16.09 Fair CLR 20.5 -0.5 25% 75.49 0.0
04 23:30 SW 19 16.09 Fair CLR 21.1 -0.5 24% 75.49 0.0
04 23:10 SW 19 16.09 Fair CLR 21.5 -0.7 23% 75.49 0.0
04 22:50 SW 17 16.09 Fair CLR 21.2 -0.9 23% 75.49 0.0
04 22:30 SW 15 16.09 Fair CLR 21.5 -1.6 21% 75.49 0.0
04 22:10 SW 20 16.09 Fair CLR 22.5 -1 21% 75.49 0.0
04 21:30 SW 13 16.09 Fair CLR 22.4 -0.2 22% 75.46 0.0
04 21:10 SW 19 16.09 Fair CLR 23.3 0 21% 75.44 0.0
04 20:50 SW 24 16.09 Fair CLR 24.5 0 20% 25 75.44 0.0
04 20:10 SW 28 16.09 Fair CLR 25.6 0 19% 25 75.41 0.0
04 19:50 SW 26 G 35 16.09 Fair CLR 26.3 0.5 19% 26 75.39 0.0
04 19:30 SW 26 G 35 16.09 Fair CLR 27 0.1 17% 26 75.39 0.0
04 19:10 SW 28 G 43 16.09 Fair CLR 27.5 0.5 17% 26 75.41 0.0
04 18:50 SW 31 G 44 16.09 Fair CLR 27.7 1 29.9 27.7 18% 26 75.41 0.0
04 18:30 SW 37 G 46 16.09 Fair and Breezy CLR 28.2 1.2 17% 27 75.41 0.0
04 18:10 SW 33 G 50 16.09 Fair and Breezy CLR 28.9 0.7 16% 27 75.41 0.0
04 17:30 W 22 G 37 16.09 Fair CLR 29.2 0.2 15% 28 75.41 0.0
04 17:10 W 22 16.09 Fair CLR 28.9 0.7 16% 27 75.44 0.0
04 16:50 W 24 G 35 16.09 Fair CLR 29 2 18% 27 75.46 0.0
04 16:30 W 22 16.09 Fair CLR 29.1 1.7 17% 27 75.49 0.0
04 16:10 W 22 G 37 16.09 Fair CLR 29.2 2.1 17% 28 75.51 0.0
04 15:30 W 20 G 35 16.09 Fair CLR 29 2.3 18% 27 75.54 0.0
04 15:10 W 22 G 39 16.09 Fair CLR 29 2 18% 27 75.57 0.0
04 14:50 W 30 G 41 16.09 Fair CLR 28.7 1.9 18% 27 75.62 0.0
04 14:30 SW 22 G 37 16.09 Fair CLR 28.7 3.5 20% 27 75.62 0.0
04 14:10 W 17 G 37 16.09 Fair CLR 29.3 2.8 18% 28 75.62 0.0
04 13:50 W 30 G 35 16.09 Fair CLR 29.2 2.9 18% 28 75.64 0.0
04 13:30 W 28 G 37 16.09 Fair CLR 28.5 3.7 20% 27 75.67 0.0
04 13:10 W 24 G 37 16.09 Fair CLR 28 5 23% 27 75.69 0.0
04 12:50 NW 31 16.09 Fair CLR 28.1 4.8 28.1 10.5 23% 27 75.72 0.0
04 12:30 W 28 G 44 16.09 Fair CLR 27.8 5.1 23% 27 75.77 0.0
04 12:10 W 33 G 43 16.09 Fair and Breezy CLR 27.5 5.5 25% 27 75.79 0.0
04 11:50 W 33 G 44 16.09 Fair and Breezy CLR 26.4 5.6 26% 26 75.79 0.0
04 11:30 W 33 G 41 16.09 Fair and Breezy CLR 25.7 6.1 29% 26 75.82 0.0
04 11:10 W 30 G 37 16.09 Fair CLR 25 6 30% 25 75.82 0.0
04 10:30 W 28 G 37 16.09 Fair CLR 22.8 7.7 38% 75.82 0.0
04 10:10 W 20 G 33 16.09 Fair CLR 20.6 7.6 43% 75.84 0.0
04 09:50 W 22 16.09 Fair CLR 19.9 7.8 46% 75.84 0.0
04 09:30 W 22 16.09 Fair CLR 18.3 7.9 51% 75.84 0.0
04 09:10 W 19 16.09 Fair CLR 16.6 7.9 57% 75.84 0.0
04 08:50 W 22 16.09 Fair CLR 15.2 7.9 62% 75.87 0.0
04 08:30 W 15 16.09 Fair CLR 14 7.6 66% 75.84 0.0
04 08:10 SW 15 16.09 Fair CLR 12.9 7.3 69% 75.84 0.0
04 07:50 SW 9 16.09 Fair CLR 11.8 7 73% 75.82 0.0
04 07:30 SW 6 16.09 Fair CLR 10.9 6.6 75% 75.82 0.0
04 07:10 W 6 16.09 Fair CLR 10.5 6.3 75% 75.79 0.0
04 06:50 SW 7 16.09 Fair CLR 11.1 6.5 16.1 11 74% 75.79 0.0
04 06:30 W 6 16.09 Fair CLR 11.6 6.7 72% 75.79 0.0
04 06:10 SW 9 16.09 Fair CLR 12.3 7 70% 75.79 0.0
04 05:50 SW 13 16.09 Fair CLR 12.7 7 69% 75.79 0.0
04 05:30 SW 17 16.09 Fair CLR 13 7.1 68% 75.79 0.0
04 05:10 SW 17 16.09 Fair CLR 13.2 7 66% 75.82 0.0
04 04:50 SW 17 G 26 16.09 Fair CLR 13.5 7 65% 75.82 0.0
04 04:30 SW 17 16.09 Fair CLR 13.8 7 64% 75.84 0.0
04 04:10 SW 20 G 28 16.09 Fair CLR 14 6.9 63% 75.84 0.0
04 03:50 SW 17 16.09 Fair CLR 14 6.6 61% 75.84 0.0
04 03:30 SW 20 G 30 16.09 Fair CLR 14.2 6.4 60% 75.87 0.0
04 03:10 SW 19 16.09 Fair CLR 14.2 6.1 58% 75.9 0.0
04 02:50 SW 20 16.09 Fair CLR 14.6 6.2 57% 75.9 0.0
04 02:30 SW 26 G 37 16.09 Fair CLR 15.5 6.3 55% 75.9 0.0
04 02:10 SW 26 G 35 16.09 Fair CLR 15.8 6.1 53% 75.92 0.0
04 01:50 SW 26 G 31 16.09 Fair CLR 16.1 6 51% 75.97 0.0
04 01:30 SW 22 G 33 16.09 Fair CLR 16 5.4 50% 75.97 0.0
04 01:10 SW 20 16.09 Fair CLR 15.6 5.1 50% 75.97 0.0
04 00:50 S 19 16.09 Fair CLR 14.8 4.6 23.3 14.6 51% 75.97 0.0
04 00:30 S 15 16.09 Fair CLR 15 4.5 50% 75.97 0.0
04 00:10 S 15 16.09 Fair CLR 15.7 4.5 48% 76 0.0
03 23:50 S 13 16.09 Fair CLR 15.5 4.1 47% 76.02 0.0
03 23:30 S 15 16.09 Fair CLR 16 4 45% 76.02 0.0
03 23:10 S 15 16.09 Fair CLR 16.7 4 43% 76.05 0.0
03 22:50 S 19 16.09 Fair CLR 17.2 3.7 41% 76.05 0.0
03 22:30 S 15 16.09 Fair CLR 17.7 4 40% 76.05 0.0
03 22:10 S 17 16.09 Fair CLR 17.8 3.5 39% 76.02 0.0
03 21:50 S 13 16.09 Fair CLR 18.3 3.5 38% 76.02 0.0
03 21:30 S 13 16.09 Partly Cloudy SCT090 18.9 3.2 35% 76.02 0.0
03 21:10 S 15 16.09 Mostly Cloudy BKN090 19.9 3.1 33% 76.02 0.0
03 20:50 SW 19 16.09 Partly Cloudy SCT090 20.2 3.1 32% 76.02 0.0
03 20:30 SW 19 16.09 Fair CLR 21 3 31% 76.02 0.0
03 20:10 SW 17 G 30 16.09 Fair CLR 21.7 2.8 29% 76.02 0.0
03 19:50 SW 22 G 31 16.09 Fair CLR 22.5 2.8 28% 76.02 0.0
03 19:30 SW 28 G 35 16.09 Partly Cloudy SCT080 22.8 3.1 28% 76.02 0.0
03 19:10 SW 26 G 37 16.09 Partly Cloudy SCT080 23.2 3 27% 76.02 0.0
03 18:50 SW 24 G 39 16.09 Partly Cloudy SCT085 23.2 2.9 25 22.1 27% 76.02 0.0
03 18:30 SW 22 G 37 16.09 Fair CLR 23.4 2.4 25% 76.05 0.0
03 18:10 SW 31 G 41 16.09 Fair CLR 24.1 2.7 25% 25 76.07 0.0
03 17:50 SW 28 G 39 16.09 Fair CLR 23.6 2.5 25% 76.07 0.0
03 17:30 SW 26 G 39 16.09 Fair CLR 24.6 2.5 24% 25 76.1 0.0
03 17:10 SW 30 G 41 16.09 Partly Cloudy SCT080 23.9 2.5 25% 25 76.1 0.0
03 16:50 SW 30 G 41 16.09 Partly Cloudy SCT080 24.7 2.4 23% 25 76.12 0.0
03 16:30 SW 26 G 43 16.09 Partly Cloudy SCT080 24.5 2.3 23% 25 76.15 0.0
03 16:10 SW 30 G 50 16.09 Partly Cloudy SCT080 24.7 2.2 23% 25 76.17 0.0
03 15:50 SW 28 G 43 16.09 Partly Cloudy SCT080 25 1.8 22% 25 76.2 0.0
03 15:30 W 26 G 48 16.09 Fair CLR 24.6 2.4 24% 25 76.25 0.0
03 15:10 SW 26 G 43 16.09 Fair CLR 23.4 1.9 24% 76.28 0.0
03 14:50 SW 30 G 48 16.09 Fair CLR 23.8 2.2 24% 76.3 0.0
03 14:30 SW 26 G 44 16.09 Fair CLR 22.8 2.9 27% 76.33 0.0
03 14:10 SW 30 G 44 16.09 Fair CLR 23.3 3.3 27% 76.35 0.0
03 13:50 S 26 G 48 16.09 Fair CLR 22.8 3.3 28% 76.38 0.0
03 13:30 SW 33 G 44 16.09 Fair and Breezy CLR 22.3 3.3 29% 76.4 0.0
03 13:10 SW 24 G 44 16.09 Partly Cloudy SCT065 22.4 3.1 28% 76.45 0.0
03 12:50 SW 28 G 43 16.09 Partly Cloudy SCT065 22.4 3 22.4 5.2 28% 76.48 0.0
03 12:30 SW 26 G 39 16.09 Partly Cloudy SCT065 22 3.6 30% 76.48 0.0
03 12:10 SW 28 G 46 16.09 Fair CLR 21.5 2.9 29% 76.53 0.0
03 11:50 SW 30 G 39 16.09 Fair CLR 21.2 3.4 31% 76.53 0.0
03 11:30 SW 24 G 37 16.09 Fair CLR 20.8 3 31% 76.58 0.0
03 11:10 SW 26 G 39 16.09 Fair CLR 19.9 3.2 33% 76.58 0.0
03 10:50 SW 28 G 37 16.09 Fair CLR 19.6 3.7 35% 76.58 0.0
03 10:30 SW 28 G 37 16.09 Fair CLR 19 4.3 38% 76.61 0.0
03 10:10 SW 30 16.09 Fair CLR 18.1 4.4 41% 76.61 0.0
03 09:50 SW 33 G 41 16.09 Fair and Breezy CLR 17.4 4.5 43% 76.63 0.0
Date Time (cdt) Wind (kph) Vis. (km) Weather Sky Cond. Air Dwpt Max. Min. Relative Humidity Wind Chill (°C) Heat Index (°C) altimeter (cm) sea level (mb) 1 hr 3 hr 6 hr
6 hour
Temperature (ºC) Pressure Precipitation (cm)